Time;durP1;ratioP1;P1;durP2;ratioP2;P2;SDS_P1;SDS_P2;PMS_P1;PMS_P2;Temp;Humidity;BMP_temperature;BMP_pressure;BME280_temperature;BME280_humidity;BME280_pressure;Samples;Min_cycle;Max_cycle;Signal;HPM_P1;HPM_P2
2022/09/29 00:02:15;;;;;;;6.88;4.00;;;7.60;99.90;;;;;;5036148;28;20043;-75
2022/09/29 00:04:40;;;;;;;5.65;3.72;;;7.50;99.90;;;;;;5064475;28;20041;-74
2022/09/29 00:07:06;;;;;;;5.40;3.53;;;7.50;99.90;;;;;;5052690;28;20037;-75
2022/09/29 00:09:32;;;;;;;5.97;4.05;;;7.50;99.90;;;;;;5020566;28;20049;-76
2022/09/29 00:11:57;;;;;;;6.28;4.28;;;7.50;99.90;;;;;;5054067;28;20052;-77
2022/09/29 00:14:23;;;;;;;7.75;4.30;;;7.50;99.90;;;;;;5003538;28;20094;-75
2022/09/29 00:16:50;;;;;;;6.60;4.63;;;7.50;99.90;;;;;;5035517;28;20045;-75
2022/09/29 00:19:16;;;;;;;5.20;3.70;;;7.50;99.90;;;;;;5019355;28;20484;-75
2022/09/29 00:21:42;;;;;;;6.15;3.80;;;7.50;99.90;;;;;;5036328;28;20044;-76
2022/09/29 00:24:08;;;;;;;9.05;7.00;;;7.50;99.90;;;;;;5026764;28;20053;-75
2022/09/29 00:26:34;;;;;;;8.63;6.53;;;7.40;99.90;;;;;;5019088;28;20477;-78
2022/09/29 00:28:59;;;;;;;6.80;4.30;;;7.40;99.90;;;;;;5036153;28;20043;-76
2022/09/29 00:31:29;;;;;;;5.70;3.95;;;7.40;99.90;;;;;;5035116;28;20072;-75
2022/09/29 00:33:54;;;;;;;6.10;4.30;;;7.40;99.90;;;;;;5036626;28;20068;-75
2022/09/29 00:36:22;;;;;;;5.65;3.75;;;7.40;99.90;;;;;;5035953;28;20080;-75
2022/09/29 00:38:49;;;;;;;6.70;5.07;;;7.30;99.90;;;;;;5018090;28;20453;-75
2022/09/29 00:41:17;;;;;;;6.00;3.97;;;7.30;99.90;;;;;;5017095;28;20088;-75
2022/09/29 00:43:51;;;;;;;6.82;4.28;;;7.30;99.90;;;;;;5035760;28;20081;-76
2022/09/29 00:46:23;;;;;;;5.45;4.10;;;7.30;99.90;;;;;;5030619;28;20369;-75
2022/09/29 00:48:50;;;;;;;7.25;4.10;;;7.50;99.90;;;;;;5019196;28;20045;-75
2022/09/29 00:51:17;;;;;;;5.53;3.67;;;7.30;99.90;;;;;;5035377;28;20037;-76
2022/09/29 00:53:43;;;;;;;5.55;3.85;;;7.30;99.90;;;;;;5017649;28;20077;-76
2022/09/29 00:56:14;;;;;;;5.70;4.00;;;7.30;99.90;;;;;;5015968;28;20048;-76
2022/09/29 00:58:41;;;;;;;5.72;3.80;;;7.30;99.90;;;;;;5031578;28;20045;-76
2022/09/29 01:01:08;;;;;;;5.82;3.90;;;7.30;99.90;;;;;;5034021;28;20376;-76
2022/09/29 01:03:38;;;;;;;6.18;4.10;;;7.20;99.90;;;;;;5051527;28;20103;-76
2022/09/29 01:06:19;;;;;;;5.88;3.70;;;7.20;99.90;;;;;;5034821;28;20166;-75
2022/09/29 01:08:56;;;;;;;8.50;6.68;;;7.20;99.90;;;;;;5033126;28;20080;-75
2022/09/29 01:11:22;;;;;;;7.38;4.75;;;7.20;99.90;;;;;;5035339;28;20049;-75
2022/09/29 01:13:49;;;;;;;6.35;4.60;;;7.30;99.90;;;;;;5035500;28;20374;-78
2022/09/29 01:16:15;;;;;;;6.75;4.28;;;7.10;99.90;;;;;;5033879;28;20054;-76
2022/09/29 01:18:42;;;;;;;7.13;4.95;;;7.10;99.90;;;;;;5035558;28;20052;-76
2022/09/29 01:21:30;;;;;;;6.22;4.07;;;7.10;99.90;;;;;;5050223;28;20036;-76
2022/09/29 01:24:36;;;;;;;7.15;4.55;;;7.00;99.90;;;;;;5035513;28;20139;-76
2022/09/29 01:27:15;;;;;;;6.40;4.60;;;7.00;99.90;;;;;;5052014;28;20140;-76
2022/09/29 01:30:04;;;;;;;6.88;4.80;;;7.00;99.90;;;;;;5052996;28;20051;-76
2022/09/29 01:32:36;;;;;;;6.85;5.65;;;7.00;99.90;;;;;;5051866;28;20036;-76
2022/09/29 01:35:15;;;;;;;5.85;4.40;;;7.00;99.90;;;;;;5035357;28;20049;-75
2022/09/29 01:38:09;;;;;;;5.82;3.90;;;6.90;99.90;;;;;;5049852;28;20120;-75
2022/09/29 01:41:22;;;;;;;6.35;4.00;;;6.90;99.90;;;;;;5034787;28;20136;-76
2022/09/29 01:43:51;;;;;;;;;;;6.90;99.90;;;;;;4920628;29;20098;-76
2022/09/29 01:46:43;;;;;;;5.93;4.10;;;6.90;99.90;;;;;;4932460;29;20046;-76
2022/09/29 01:49:10;;;;;;;5.38;3.50;;;6.90;99.90;;;;;;5001780;28;20061;-76
2022/09/29 01:51:48;;;;;;;5.75;3.80;;;6.80;99.90;;;;;;5034568;28;20048;-75
2022/09/29 01:54:20;;;;;;;5.50;3.88;;;6.80;99.90;;;;;;5031157;28;20051;-77
2022/09/29 01:56:55;;;;;;;5.60;3.78;;;6.80;99.90;;;;;;5034280;28;20048;-76
2022/09/29 01:59:28;;;;;;;6.47;3.80;;;6.90;99.90;;;;;;5034666;28;20174;-76
2022/09/29 02:02:01;;;;;;;6.32;4.22;;;6.80;99.90;;;;;;5033176;28;20098;-77
2022/09/29 02:04:42;;;;;;;6.20;4.20;;;6.90;99.90;;;;;;5049322;28;20063;-76
2022/09/29 02:07:35;;;;;;;10.43;8.65;;;6.80;99.90;;;;;;5034072;28;20094;-75
2022/09/29 02:10:08;;;;;;;6.88;4.18;;;6.80;99.90;;;;;;5033755;28;20044;-75
2022/09/29 02:12:37;;;;;;;7.47;5.95;;;6.80;99.90;;;;;;5034906;28;20080;-75
2022/09/29 02:15:06;;;;;;;7.10;5.30;;;6.80;99.90;;;;;;5034423;28;20103;-76
2022/09/29 02:17:38;;;;;;;6.53;4.57;;;6.80;99.90;;;;;;5033736;28;20140;-75
2022/09/29 02:20:04;;;;;;;6.00;4.13;;;6.70;99.90;;;;;;5019491;28;20056;-76
2022/09/29 02:22:31;;;;;;;5.82;4.40;;;6.70;99.90;;;;;;5051944;28;20045;-76
2022/09/29 02:24:58;;;;;;;7.18;5.10;;;6.70;99.90;;;;;;5034618;28;20048;-76
2022/09/29 02:27:27;;;;;;;7.07;5.03;;;6.70;99.90;;;;;;5017557;28;20094;-76
2022/09/29 02:29:54;;;;;;;6.93;5.05;;;6.80;99.90;;;;;;5034146;28;20052;-76
2022/09/29 02:32:20;;;;;;;6.82;5.28;;;6.70;99.90;;;;;;5032919;28;20072;-76
2022/09/29 02:34:48;;;;;;;143.57;18.60;;;6.70;99.90;;;;;;5034283;28;20461;-79
2022/09/29 02:37:53;;;;;;;7.53;6.05;;;6.70;99.90;;;;;;5034175;28;20075;-77
2022/09/29 02:40:19;;;;;;;10.13;6.95;;;6.70;99.90;;;;;;5024875;28;20088;-76
2022/09/29 02:43:39;;;;;;;7.47;5.70;;;6.70;99.90;;;;;;5034433;28;20550;-76
2022/09/29 02:46:24;;;;;;;8.45;6.03;;;6.70;99.90;;;;;;4988521;28;20193;-78
2022/09/29 02:49:01;;;;;;;8.75;6.82;;;6.70;99.90;;;;;;5034714;28;20075;-77
2022/09/29 02:51:37;;;;;;;10.32;7.80;;;6.60;99.90;;;;;;5028271;28;20120;-76
2022/09/29 02:54:17;;;;;;;10.07;8.95;;;6.60;99.90;;;;;;5049692;28;20048;-77
2022/09/29 02:57:04;;;;;;;8.95;6.80;;;6.60;99.90;;;;;;5016447;28;20132;-77
2022/09/29 02:59:38;;;;;;;7.53;6.50;;;6.60;99.90;;;;;;5032100;28;20502;-77
2022/09/29 03:02:04;;;;;;;7.15;6.00;;;6.60;99.90;;;;;;5032552;28;20036;-77
2022/09/29 03:04:30;;;;;;;7.47;6.00;;;6.60;99.90;;;;;;5051418;28;20366;-76
2022/09/29 03:06:56;;;;;;;7.93;6.47;;;6.60;99.90;;;;;;5050713;28;20095;-76
2022/09/29 03:09:21;;;;;;;7.60;6.20;;;6.60;99.90;;;;;;5033646;28;20389;-76
2022/09/29 03:11:47;;;;;;;23.33;12.15;;;6.60;99.90;;;;;;5036388;28;20048;-76
2022/09/29 03:14:13;;;;;;;10.85;8.23;;;6.60;99.90;;;;;;5038344;28;20044;-76
2022/09/29 03:16:39;;;;;;;14.88;12.30;;;6.50;99.90;;;;;;5019141;28;20060;-76
2022/09/29 03:19:06;;;;;;;8.75;7.45;;;6.50;99.90;;;;;;5055838;28;20158;-75
2022/09/29 03:21:32;;;;;;;8.57;7.07;;;6.50;99.90;;;;;;5020960;28;20040;-76
2022/09/29 03:23:58;;;;;;;8.57;6.80;;;6.50;99.90;;;;;;5055057;28;20041;-76
2022/09/29 03:26:24;;;;;;;8.75;7.65;;;6.40;99.90;;;;;;5055162;28;20052;-76
2022/09/29 03:28:51;;;;;;;8.85;7.28;;;6.50;99.90;;;;;;5035589;28;20492;-76
2022/09/29 03:31:17;;;;;;;9.60;8.05;;;6.50;99.90;;;;;;5036204;28;20119;-77
2022/09/29 03:37:23;;;;;;;15.43;13.05;;;6.50;99.90;;;;;;5051970;28;20044;-76
2022/09/29 03:39:49;;;;;;;10.80;9.50;;;6.40;99.90;;;;;;5055031;28;20461;-76
2022/09/29 03:42:15;;;;;;;9.95;8.68;;;6.40;99.90;;;;;;5050431;28;20068;-76
2022/09/29 03:44:41;;;;;;;10.68;9.40;;;6.40;99.90;;;;;;5055275;28;20056;-76
2022/09/29 03:47:07;;;;;;;10.98;9.40;;;6.30;99.90;;;;;;5021380;28;20048;-76
2022/09/29 03:49:32;;;;;;;10.70;9.02;;;6.30;99.90;;;;;;5036630;28;20059;-77
2022/09/29 03:51:58;;;;;;;11.48;10.27;;;6.30;99.90;;;;;;5054768;28;20079;-76
2022/09/29 03:54:26;;;;;;;93.80;21.08;;;6.30;99.90;;;;;;5053080;28;20081;-77
2022/09/29 03:56:52;;;;;;;17.15;15.32;;;6.40;99.90;;;;;;5054493;28;20052;-76
2022/09/29 03:59:17;;;;;;;19.63;17.30;;;6.30;99.90;;;;;;5037735;28;20041;-76
2022/09/29 04:01:43;;;;;;;15.55;13.93;;;6.30;99.90;;;;;;5052271;28;20063;-76
2022/09/29 04:04:09;;;;;;;15.38;13.73;;;6.30;99.90;;;;;;5053929;28;20464;-77
2022/09/29 04:06:35;;;;;;;13.70;12.30;;;6.30;99.90;;;;;;5054326;28;20115;-76
2022/09/29 04:09:01;;;;;;;25.80;17.92;;;6.30;99.90;;;;;;5036767;28;20044;-77
2022/09/29 04:11:27;;;;;;;19.23;17.17;;;6.20;99.90;;;;;;5036283;28;20049;-76
2022/09/29 04:13:53;;;;;;;23.92;17.98;;;6.20;99.90;;;;;;5054776;28;20115;-76
2022/09/29 04:16:18;;;;;;;22.00;17.73;;;6.20;99.90;;;;;;5032990;28;20396;-76
2022/09/29 04:18:44;;;;;;;17.13;15.32;;;6.20;99.90;;;;;;5019804;28;20067;-76
2022/09/29 04:21:11;;;;;;;20.40;17.73;;;6.20;99.90;;;;;;5054129;28;20033;-76
2022/09/29 04:23:37;;;;;;;22.67;20.20;;;6.20;99.90;;;;;;5035165;28;20040;-76
2022/09/29 04:26:03;;;;;;;19.00;17.00;;;6.20;99.90;;;;;;5019775;28;20483;-77
2022/09/29 04:28:33;;;;;;;18.15;16.25;;;6.10;99.90;;;;;;5036936;28;20493;-77
2022/09/29 04:30:59;;;;;;;19.92;17.83;;;6.20;99.90;;;;;;5035612;28;20037;-77
2022/09/29 04:33:25;;;;;;;24.27;20.70;;;6.10;99.90;;;;;;5035486;28;20500;-78
2022/09/29 04:35:50;;;;;;;20.30;17.70;;;6.10;99.90;;;;;;5019734;28;20049;-76
2022/09/29 04:38:17;;;;;;;17.30;15.50;;;6.30;99.90;;;;;;5036565;28;21150;-77
2022/09/29 04:40:42;;;;;;;21.45;18.92;;;6.10;99.90;;;;;;5018956;28;20045;-77
2022/09/29 04:43:08;;;;;;;18.42;16.55;;;6.10;99.90;;;;;;5054075;28;20037;-77
2022/09/29 04:45:34;;;;;;;18.48;15.40;;;6.00;99.90;;;;;;5035181;28;20052;-77
2022/09/29 04:48:00;;;;;;;15.18;13.57;;;6.10;99.90;;;;;;5035875;28;20039;-76
2022/09/29 04:50:26;;;;;;;13.70;12.30;;;6.00;99.90;;;;;;5019354;28;20363;-77
2022/09/29 04:52:51;;;;;;;14.60;13.13;;;6.00;99.90;;;;;;5043487;28;20075;-76
2022/09/29 04:55:17;;;;;;;13.48;12.05;;;6.30;99.90;;;;;;5019370;28;20167;-76
2022/09/29 04:57:43;;;;;;;15.57;13.90;;;6.00;99.90;;;;;;5039598;28;20048;-77
2022/09/29 05:00:10;;;;;;;12.10;10.85;;;5.90;99.90;;;;;;5052988;28;20041;-77
2022/09/29 05:02:36;;;;;;;13.27;11.88;;;5.90;99.90;;;;;;5035242;28;20124;-76
2022/09/29 05:05:02;;;;;;;14.65;13.15;;;6.00;99.90;;;;;;5036240;28;20049;-77
2022/09/29 05:07:28;;;;;;;13.68;12.27;;;5.80;99.90;;;;;;5053375;28;20041;-77
2022/09/29 05:09:54;;;;;;;13.88;10.90;;;6.30;99.90;;;;;;5035458;28;20040;-76
2022/09/29 05:12:20;;;;;;;11.30;10.20;;;5.80;99.90;;;;;;5053096;28;20571;-76
2022/09/29 05:14:46;;;;;;;10.43;9.35;;;6.00;99.90;;;;;;5033891;28;20396;-76
2022/09/29 05:17:12;;;;;;;10.30;9.20;;;5.80;99.90;;;;;;5042625;28;20045;-76
2022/09/29 05:19:38;;;;;;;9.68;8.68;;;5.80;99.90;;;;;;5035435;28;20053;-76
2022/09/29 05:22:04;;;;;;;9.25;8.30;;;5.80;99.90;;;;;;5052356;28;20126;-76
2022/09/29 05:24:30;;;;;;;9.48;7.90;;;5.90;99.90;;;;;;5027379;28;20047;-76
2022/09/29 05:26:56;;;;;;;8.50;7.38;;;5.90;99.90;;;;;;5040263;28;20393;-77
2022/09/29 05:29:22;;;;;;;9.15;7.68;;;5.90;99.90;;;;;;5049368;28;20091;-76
2022/09/29 05:31:49;;;;;;;7.60;6.32;;;5.80;99.90;;;;;;5033962;28;20052;-76
2022/09/29 05:34:14;;;;;;;7.60;6.72;;;5.90;99.90;;;;;;4988565;28;20041;-77
2022/09/29 05:36:40;;;;;;;9.02;7.05;;;5.80;99.90;;;;;;5034208;28;20103;-77
2022/09/29 05:39:06;;;;;;;7.57;6.47;;;5.80;99.90;;;;;;5052180;28;20040;-76
2022/09/29 05:41:32;;;;;;;7.70;6.90;;;5.80;99.90;;;;;;5052351;28;20033;-76
2022/09/29 05:44:00;;;;;;;7.75;6.95;;;5.70;99.90;;;;;;5051502;28;20120;-76
2022/09/29 05:46:26;;;;;;;15.75;9.02;;;5.70;99.90;;;;;;5024860;28;20091;-76
2022/09/29 05:48:52;;;;;;;14.48;9.88;;;5.80;99.90;;;;;;5035083;28;20037;-76
2022/09/29 05:51:20;;;;;;;9.90;7.93;;;5.70;99.90;;;;;;5046225;28;20060;-76
2022/09/29 05:53:46;;;;;;;27.35;10.77;;;5.70;99.90;;;;;;5046756;28;20120;-76
2022/09/29 05:56:15;;;;;;;10.40;8.93;;;5.70;99.90;;;;;;5039884;28;20449;-76
2022/09/29 05:58:41;;;;;;;17.30;10.13;;;5.60;99.90;;;;;;5043264;28;20068;-76
2022/09/29 06:01:09;;;;;;;14.77;10.45;;;5.60;99.90;;;;;;5032875;28;20098;-76
2022/09/29 06:03:36;;;;;;;71.55;14.68;;;5.50;99.90;;;;;;5034182;28;20040;-77
2022/09/29 06:06:14;;;;;;;22.35;9.65;;;5.50;99.90;;;;;;5039132;28;20469;-77
2022/09/29 06:08:40;;;;;;;15.60;9.65;;;5.50;99.90;;;;;;5017950;28;20044;-76
2022/09/29 06:11:09;;;;;;;22.25;10.00;;;5.40;99.90;;;;;;5033786;28;20055;-76
2022/09/29 06:13:39;;;;;;;50.63;12.75;;;5.60;99.90;;;;;;5034553;28;20166;-75
2022/09/29 06:16:06;;;;;;;65.88;13.88;;;5.40;99.90;;;;;;5050598;28;20052;-76
2022/09/29 06:18:31;;;;;;;43.33;12.07;;;5.40;99.90;;;;;;5010259;28;20041;-77
2022/09/29 06:21:02;;;;;;;97.47;21.33;;;5.40;99.90;;;;;;5052202;28;20162;-76
2022/09/29 06:23:28;;;;;;;60.00;17.60;;;5.50;99.90;;;;;;5048614;28;20045;-77
2022/09/29 06:25:57;;;;;;;24.65;15.70;;;5.40;99.90;;;;;;5051909;28;20582;-76
2022/09/29 06:28:24;;;;;;;26.65;16.73;;;5.50;99.90;;;;;;5034578;28;20041;-77
2022/09/29 06:30:50;;;;;;;31.80;18.92;;;6.00;99.90;;;;;;5051123;28;20107;-77
2022/09/29 06:33:16;;;;;;;40.42;20.08;;;5.70;99.90;;;;;;5013806;28;20498;-77
2022/09/29 06:38:31;;;;;;;36.38;23.45;;;6.00;99.90;;;;;;5039123;28;20060;-77
2022/09/29 06:40:56;;;;;;;30.08;18.95;;;6.20;99.90;;;;;;5013198;28;20029;-77
2022/09/29 06:43:22;;;;;;;18.63;16.70;;;6.20;99.90;;;;;;5041030;28;20060;-78
2022/09/29 06:45:48;;;;;;;21.00;18.58;;;6.30;99.90;;;;;;5039602;28;20037;-77
2022/09/29 06:48:13;;;;;;;22.77;18.02;;;6.30;99.90;;;;;;5037699;28;20547;-77
2022/09/29 06:50:39;;;;;;;17.92;15.95;;;6.50;99.90;;;;;;5040156;28;20040;-77
2022/09/29 06:53:05;;;;;;;19.20;17.23;;;6.30;99.90;;;;;;5015555;28;20040;-78
2022/09/29 06:55:31;;;;;;;21.65;19.35;;;6.30;99.90;;;;;;5040433;28;20072;-77
2022/09/29 06:57:57;;;;;;;21.48;19.08;;;6.30;99.90;;;;;;5038132;28;20483;-76
2022/09/29 07:00:22;;;;;;;25.75;20.58;;;6.30;99.90;;;;;;5040508;28;20025;-78
2022/09/29 07:02:48;;;;;;;22.48;20.08;;;6.40;99.90;;;;;;5045289;28;20469;-78
2022/09/29 07:05:15;;;;;;;22.67;19.70;;;6.40;99.90;;;;;;5049059;28;20042;-77
2022/09/29 07:07:41;;;;;;;22.80;20.35;;;6.50;99.90;;;;;;5051475;28;20049;-77
2022/09/29 07:10:08;;;;;;;24.10;21.42;;;6.50;99.90;;;;;;5033626;28;20424;-78
2022/09/29 07:12:33;;;;;;;24.15;21.23;;;6.70;99.90;;;;;;5017347;28;20056;-77
2022/09/29 07:14:59;;;;;;;30.25;22.40;;;6.80;99.90;;;;;;5029661;28;20080;-78
2022/09/29 07:17:25;;;;;;;25.83;20.23;;;6.90;99.90;;;;;;5026704;28;20069;-77
2022/09/29 07:19:53;;;;;;;21.92;18.98;;;7.10;99.90;;;;;;5027726;28;20041;-78
2022/09/29 07:22:19;;;;;;;24.30;21.67;;;7.20;99.90;;;;;;5030456;28;20048;-77
2022/09/29 07:24:46;;;;;;;21.35;19.13;;;7.30;99.90;;;;;;5030285;28;20049;-77
2022/09/29 07:27:12;;;;;;;22.48;20.05;;;7.30;99.90;;;;;;5010482;28;20037;-77
2022/09/29 07:29:38;;;;;;;18.63;16.73;;;7.40;99.90;;;;;;5027982;28;20377;-77
2022/09/29 07:32:04;;;;;;;22.52;20.15;;;7.50;99.90;;;;;;5016069;28;20037;-77
2022/09/29 07:34:30;;;;;;;20.95;18.20;;;7.60;99.90;;;;;;5018573;28;20054;-77
2022/09/29 07:36:55;;;;;;;22.83;20.50;;;7.60;99.90;;;;;;5007904;28;20057;-77
2022/09/29 07:39:21;;;;;;;23.60;21.08;;;7.70;99.90;;;;;;5028333;28;20080;-77
2022/09/29 07:41:47;;;;;;;22.60;20.25;;;7.80;99.90;;;;;;5019914;28;20042;-76
2022/09/29 07:44:13;;;;;;;21.45;19.25;;;7.80;99.90;;;;;;5028506;28;20037;-77
2022/09/29 07:46:38;;;;;;;26.48;22.23;;;7.90;99.90;;;;;;5009936;28;20060;-77
2022/09/29 07:49:04;;;;;;;25.70;22.77;;;7.90;99.90;;;;;;5018733;28;20041;-76
2022/09/29 07:51:31;;;;;;;23.52;20.98;;;8.00;99.90;;;;;;5029675;28;20042;-77
2022/09/29 07:54:01;;;;;;;22.20;19.90;;;7.90;99.90;;;;;;5030207;28;20049;-77
2022/09/29 07:56:27;;;;;;;23.63;21.10;;;8.00;99.90;;;;;;5030408;28;20057;-75
2022/09/29 07:58:53;;;;;;;21.83;19.55;;;8.00;99.90;;;;;;5020943;28;20388;-79
2022/09/29 08:01:19;;;;;;;22.52;20.23;;;8.10;99.90;;;;;;5015049;28;20492;-78
2022/09/29 08:03:51;;;;;;;20.70;18.25;;;8.10;99.90;;;;;;5025280;28;20045;-77
2022/09/29 08:06:18;;;;;;;15.00;13.40;;;8.10;99.90;;;;;;5027686;28;20041;-76
2022/09/29 08:08:43;;;;;;;24.08;20.42;;;8.20;99.90;;;;;;5026026;28;20499;-77
2022/09/29 08:11:12;;;;;;;23.50;19.95;;;8.20;99.90;;;;;;5025808;28;20042;-77
2022/09/29 08:13:38;;;;;;;22.52;20.13;;;8.30;99.90;;;;;;5028774;28;20374;-76
2022/09/29 08:16:06;;;;;;;22.65;20.25;;;8.20;99.90;;;;;;5034041;28;20049;-78
2022/09/29 08:18:33;;;;;;;25.52;22.70;;;8.00;99.90;;;;;;5044351;28;20233;-77
2022/09/29 08:20:59;;;;;;;20.35;18.35;;;8.30;99.90;;;;;;5030823;28;20045;-77
2022/09/29 08:23:25;;;;;;;30.20;24.65;;;8.30;99.90;;;;;;5043201;28;20057;-76
2022/09/29 08:26:08;;;;;;;19.95;17.70;;;8.40;99.90;;;;;;5044831;28;20481;-79
2022/09/29 08:28:36;;;;;;;26.27;23.48;;;8.40;99.90;;;;;;5013415;28;20433;-79
2022/09/29 08:31:08;;;;;;;23.33;20.80;;;8.50;99.90;;;;;;5031534;28;20092;-77
2022/09/29 08:33:34;;;;;;;24.27;21.45;;;8.70;99.90;;;;;;5048057;28;20044;-76
2022/09/29 08:36:04;;;;;;;20.77;18.60;;;8.90;99.90;;;;;;5030084;28;20480;-77
2022/09/29 08:38:31;;;;;;;26.88;23.98;;;9.10;99.90;;;;;;5031327;28;20053;-75
2022/09/29 08:41:02;;;;;;;22.88;20.50;;;9.40;99.90;;;;;;5048913;28;20441;-80
2022/09/29 08:43:40;;;;;;;19.45;17.35;;;9.70;99.90;;;;;;5027595;28;20130;-76
2022/09/29 08:46:38;;;;;;;19.58;17.48;;;9.70;99.90;;;;;;5030515;28;20116;-77
2022/09/29 08:49:22;;;;;;;20.73;18.52;;;9.70;99.90;;;;;;5032931;28;20362;-75
2022/09/29 08:52:03;;;;;;;19.50;17.50;;;9.90;99.90;;;;;;5015074;28;20064;-77
2022/09/29 08:54:41;;;;;;;18.80;16.90;;;10.20;99.90;;;;;;5033065;28;20368;-74
2022/09/29 08:57:16;;;;;;;20.70;18.42;;;10.40;99.90;;;;;;5015335;28;20040;-75
2022/09/29 08:59:42;;;;;;;17.23;15.52;;;10.40;99.90;;;;;;5033139;28;20419;-74
2022/09/29 09:02:26;;;;;;;17.73;15.82;;;10.50;99.90;;;;;;5032314;28;20037;-74
2022/09/29 09:05:02;;;;;;;17.23;15.43;;;10.60;99.90;;;;;;5014876;28;20037;-73
2022/09/29 09:07:53;;;;;;;18.92;16.90;;;10.70;99.90;;;;;;5031609;28;20124;-75
2022/09/29 09:10:38;;;;;;;16.38;14.43;;;11.00;99.90;;;;;;5043647;28;20160;-75
2022/09/29 09:13:37;;;;;;;16.65;14.85;;;11.10;99.90;;;;;;5030695;28;20048;-72
2022/09/29 09:16:22;;;;;;;15.23;13.63;;;11.20;99.90;;;;;;5042720;28;20045;-74
2022/09/29 09:19:02;;;;;;;14.68;13.13;;;11.60;99.90;;;;;;5044173;28;20049;-73
2022/09/29 09:21:45;;;;;;;14.43;12.93;;;11.80;99.90;;;;;;5030889;28;20454;-72
2022/09/29 09:24:40;;;;;;;12.60;11.30;;;12.10;99.90;;;;;;5029975;28;20529;-73
2022/09/29 09:27:15;;;;;;;13.15;11.75;;;12.30;99.90;;;;;;5045027;28;20086;-72
2022/09/29 09:29:43;;;;;;;15.45;12.43;;;12.60;99.90;;;;;;5012405;28;20067;-73
2022/09/29 09:32:24;;;;;;;13.02;11.57;;;12.70;99.90;;;;;;5044137;28;20045;-72
2022/09/29 09:35:00;;;;;;;13.27;11.87;;;12.90;99.90;;;;;;5044423;28;20146;-74
2022/09/29 09:37:32;;;;;;;12.85;11.20;;;13.00;99.90;;;;;;5028622;28;20123;-75
2022/09/29 09:40:13;;;;;;;13.18;10.98;;;13.00;99.90;;;;;;5029079;28;20038;-76
2022/09/29 09:42:43;;;;;;;11.93;10.50;;;13.10;99.90;;;;;;5030649;28;20518;-78
2022/09/29 09:45:21;;;;;;;13.57;11.55;;;13.20;99.90;;;;;;5049732;28;20075;-76
2022/09/29 09:47:49;;;;;;;12.38;11.07;;;13.30;99.90;;;;;;5052552;28;20052;-75
2022/09/29 09:50:21;;;;;;;12.50;11.07;;;13.30;99.90;;;;;;5049840;28;20041;-75
2022/09/29 09:53:10;;;;;;;12.07;10.35;;;13.50;99.90;;;;;;5031495;28;20349;-73
2022/09/29 09:55:37;;;;;;;14.35;11.52;;;13.60;99.90;;;;;;5047116;28;20053;-76
2022/09/29 09:58:07;;;;;;;12.15;10.75;;;13.70;99.90;;;;;;5049798;28;20155;-75
2022/09/29 10:00:37;;;;;;;12.20;9.93;;;13.80;99.90;;;;;;5047173;28;20063;-75
2022/09/29 10:03:06;;;;;;;11.32;9.85;;;13.80;99.90;;;;;;5041125;28;20376;-76
2022/09/29 10:05:41;;;;;;;11.10;9.75;;;13.80;99.90;;;;;;5031166;28;20072;-74
2022/09/29 10:08:28;;;;;;;9.95;8.73;;;14.00;99.90;;;;;;5027260;28;20053;-72
2022/09/29 10:10:55;;;;;;;9.43;8.30;;;14.10;99.90;;;;;;5025462;28;20088;-74
2022/09/29 10:13:25;;;;;;;10.70;9.60;;;14.20;99.90;;;;;;5031055;28;20128;-72
2022/09/29 10:16:18;;;;;;;9.65;8.38;;;14.30;99.90;;;;;;5029977;28;20484;-72
2022/09/29 10:18:53;;;;;;;9.35;8.35;;;14.40;99.90;;;;;;5043365;28;20046;-72
2022/09/29 10:21:31;;;;;;;10.98;7.85;;;14.50;99.90;;;;;;5030769;28;20033;-73
2022/09/29 10:24:01;;;;;;;9.63;8.20;;;14.50;99.90;;;;;;5046635;28;20045;-73
2022/09/29 10:26:32;;;;;;;9.18;8.05;;;14.60;99.90;;;;;;5032935;28;20435;-73
2022/09/29 10:29:02;;;;;;;8.32;7.05;;;14.80;99.90;;;;;;5030805;28;20045;-74
2022/09/29 10:31:33;;;;;;;8.27;6.10;;;14.90;99.90;;;;;;5023140;28;20080;-75
2022/09/29 10:34:14;;;;;;;7.90;6.93;;;14.90;99.90;;;;;;5003959;28;20426;-74
2022/09/29 10:36:53;;;;;;;9.38;6.82;;;14.90;99.90;;;;;;5022500;28;20061;-74
2022/09/29 10:39:46;;;;;;;9.40;6.05;;;15.10;99.90;;;;;;5023222;28;20094;-75
2022/09/29 10:42:44;;;;;;;7.35;6.10;;;15.20;99.90;;;;;;5023500;28;20107;-74
2022/09/29 10:45:16;;;;;;;6.78;4.93;;;15.40;99.90;;;;;;5043176;28;20473;-74
2022/09/29 10:48:04;;;;;;;7.60;4.72;;;15.50;99.90;;;;;;5045193;28;20051;-74
2022/09/29 10:50:48;;;;;;;8.68;5.00;;;15.40;99.90;;;;;;5046599;28;20044;-75
2022/09/29 10:53:37;;;;;;;6.07;4.38;;;15.40;99.90;;;;;;5027954;28;20052;-77
2022/09/29 10:56:21;;;;;;;7.05;4.53;;;15.40;99.90;;;;;;5047853;28;20047;-75
2022/09/29 10:59:14;;;;;;;7.15;5.00;;;15.40;99.90;;;;;;5030454;28;20063;-76
2022/09/29 11:01:49;;;;;;;7.05;4.55;;;15.50;99.90;;;;;;5026723;28;20427;-77
2022/09/29 11:04:32;;;;;;;6.93;4.40;;;15.60;99.90;;;;;;5032609;28;20045;-74
2022/09/29 11:07:11;;;;;;;6.50;4.00;;;15.60;99.90;;;;;;5044853;28;20568;-75
2022/09/29 11:09:40;;;;;;;6.43;3.33;;;15.60;99.90;;;;;;5028749;28;20088;-74
2022/09/29 11:12:28;;;;;;;5.97;3.90;;;15.70;99.90;;;;;;5045362;28;20048;-73
2022/09/29 11:14:54;;;;;;;6.55;3.90;;;15.70;99.90;;;;;;5042423;28;20056;-73
2022/09/29 11:17:36;;;;;;;7.07;4.50;;;15.70;99.90;;;;;;5027615;28;20057;-74
2022/09/29 11:20:05;;;;;;;6.30;4.07;;;15.80;99.90;;;;;;5012552;28;20053;-75
2022/09/29 11:22:55;;;;;;;6.82;4.50;;;15.80;99.90;;;;;;5029367;28;20448;-75
2022/09/29 11:25:33;;;;;;;5.68;3.88;;;15.90;99.90;;;;;;5047381;28;20110;-76
2022/09/29 11:28:20;;;;;;;5.05;3.20;;;15.80;99.90;;;;;;5014271;28;20383;-76
2022/09/29 11:31:01;;;;;;;6.55;4.32;;;15.80;99.90;;;;;;5029420;28;20477;-76
2022/09/29 11:34:04;;;;;;;7.75;3.50;;;15.80;99.90;;;;;;5034565;28;20084;-75
2022/09/29 11:37:22;;;;;;;7.20;3.70;;;15.90;99.90;;;;;;5032730;28;20090;-75
2022/09/29 11:40:16;;;;;;;7.03;4.13;;;15.90;99.90;;;;;;4972896;28;20053;-76
2022/09/29 11:42:57;;;;;;;6.78;4.03;;;15.90;99.90;;;;;;5040035;28;20053;-75
2022/09/29 11:45:49;;;;;;;5.60;3.42;;;15.90;99.90;;;;;;5051229;28;20045;-74
2022/09/29 11:48:39;;;;;;;5.82;3.85;;;16.00;99.90;;;;;;5052225;28;20041;-74
2022/09/29 11:51:23;;;;;;;6.30;2.85;;;16.00;99.90;;;;;;5033085;28;20051;-76
2022/09/29 11:54:10;;;;;;;6.35;3.97;;;16.10;99.90;;;;;;5035226;28;20521;-75
2022/09/29 11:56:56;;;;;;;5.75;3.47;;;16.10;99.90;;;;;;5028686;28;20057;-75
2022/09/29 11:59:43;;;;;;;5.55;3.30;;;16.20;99.90;;;;;;5049437;28;20084;-75
2022/09/29 12:02:24;;;;;;;6.18;4.40;;;16.20;99.90;;;;;;5045742;28;20037;-75
2022/09/29 12:05:00;;;;;;;7.10;4.30;;;16.20;99.90;;;;;;5032985;28;20041;-74
2022/09/29 12:07:42;;;;;;;5.93;3.95;;;16.20;99.90;;;;;;5034082;28;20041;-75
2022/09/29 12:10:24;;;;;;;5.60;3.53;;;16.20;99.90;;;;;;5030517;28;20037;-76
2022/09/29 12:13:05;;;;;;;7.60;3.70;;;16.30;99.90;;;;;;5031977;28;20041;-74
2022/09/29 12:15:50;;;;;;;5.57;3.40;;;16.20;99.90;;;;;;5029727;28;20056;-73
2022/09/29 12:18:37;;;;;;;6.18;3.13;;;16.20;99.90;;;;;;5029367;28;20052;-73
2022/09/29 12:21:06;;;;;;;7.03;4.40;;;16.20;99.90;;;;;;5025841;28;20489;-73
2022/09/29 12:23:36;;;;;;;6.97;4.68;;;16.30;99.90;;;;;;5050617;28;20056;-73
2022/09/29 12:26:10;;;;;;;6.05;3.83;;;16.30;99.90;;;;;;5027789;28;20388;-75
2022/09/29 12:29:01;;;;;;;6.65;3.60;;;16.40;99.90;;;;;;5031443;28;20047;-73
2022/09/29 12:31:30;;;;;;;6.20;3.58;;;16.40;99.90;;;;;;5023430;28;20092;-71
2022/09/29 12:34:01;;;;;;;7.97;4.30;;;16.50;99.90;;;;;;5047105;28;20124;-73
2022/09/29 12:37:01;;;;;;;6.30;3.80;;;16.50;99.90;;;;;;5015435;28;20049;-71
2022/09/29 12:39:48;;;;;;;6.78;4.13;;;16.40;99.90;;;;;;5050070;28;20045;-72
2022/09/29 12:42:51;;;;;;;8.05;4.57;;;16.40;99.90;;;;;;5046243;28;20033;-71
2022/09/29 12:45:27;;;;;;;6.70;4.30;;;16.40;99.90;;;;;;5029648;28;20033;-72
2022/09/29 12:48:03;;;;;;;7.00;4.13;;;16.40;99.90;;;;;;5049470;28;20045;-75
2022/09/29 12:50:32;;;;;;;7.57;4.35;;;16.40;99.90;;;;;;5034210;28;20114;-75
2022/09/29 12:53:08;;;;;;;7.25;4.93;;;16.40;99.90;;;;;;5048304;28;20094;-74
2022/09/29 12:55:33;;;;;;;6.38;4.50;;;16.30;99.90;;;;;;5049642;28;20075;-75
2022/09/29 12:58:05;;;;;;;6.55;4.40;;;16.30;99.90;;;;;;5043333;28;20072;-74
2022/09/29 13:00:33;;;;;;;6.45;4.10;;;16.30;99.90;;;;;;5016630;28;20056;-73
2022/09/29 13:03:47;;;;;;;6.22;4.10;;;16.20;99.90;;;;;;5029829;28;20426;-74
2022/09/29 13:06:39;;;;;;;5.85;3.50;;;16.20;99.90;;;;;;4967588;28;20045;-73
2022/09/29 13:09:26;;;;;;;5.63;3.47;;;16.30;99.90;;;;;;5009459;28;20080;-74
2022/09/29 13:12:27;;;;;;;5.63;3.30;;;16.30;99.90;;;;;;5029888;28;20065;-75
2022/09/29 13:15:14;;;;;;;5.50;3.20;;;16.30;99.90;;;;;;5027783;28;20075;-74
2022/09/29 13:17:59;;;;;;;5.18;3.30;;;16.40;99.90;;;;;;5026324;28;20049;-74
2022/09/29 13:20:42;;;;;;;6.20;3.22;;;16.40;99.90;;;;;;5045619;28;20045;-74
2022/09/29 13:23:20;;;;;;;4.80;2.75;;;16.40;99.90;;;;;;5031280;28;20509;-71